createdAt,value
2023-05-01T00:00:58.955Z,27.45
2023-05-01T00:01:58.959Z,27.48
2023-05-01T00:02:59.034Z,27.49
2023-05-01T00:03:59.218Z,27.47
2023-05-01T00:04:58.976Z,27.47
2023-05-01T00:05:58.990Z,27.48
2023-05-01T00:06:58.947Z,27.47
2023-05-01T00:07:58.942Z,27.44
2023-05-01T00:08:58.931Z,27.45
2023-05-01T00:09:59.172Z,27.45
2023-05-01T00:10:58.906Z,27.43
2023-05-01T00:11:58.912Z,27.46
2023-05-01T00:12:58.918Z,27.45
2023-05-01T00:13:58.910Z,27.41
2023-05-01T00:14:58.928Z,27.45
2023-05-01T00:15:58.947Z,27.48
2023-05-01T00:16:59.020Z,27.48
2023-05-01T00:17:58.972Z,27.45
2023-05-01T00:18:58.903Z,27.41
2023-05-01T00:19:59.207Z,27.43
2023-05-01T00:20:58.939Z,27.38
2023-05-01T00:21:58.952Z,27.45
2023-05-01T00:22:58.952Z,27.41
2023-05-01T00:23:58.972Z,27.45
2023-05-01T00:24:58.980Z,27.40
2023-05-01T00:25:58.935Z,27.45
2023-05-01T00:26:58.951Z,27.45
2023-05-01T00:27:58.967Z,27.41
2023-05-01T00:28:59.008Z,27.35
2023-05-01T00:29:59.178Z,27.41
2023-05-01T00:30:59.107Z,27.40
2023-05-01T00:31:59.175Z,27.38
2023-05-01T00:32:59.168Z,27.33
2023-05-01T00:33:59.138Z,27.38
2023-05-01T00:34:59.151Z,27.38
2023-05-01T00:35:59.145Z,27.37
2023-05-01T00:36:59.131Z,27.34
2023-05-01T00:37:59.146Z,27.33
2023-05-01T00:38:59.152Z,27.40
2023-05-01T00:39:59.508Z,27.35
2023-05-01T00:40:59.141Z,27.36
2023-05-01T00:41:59.131Z,27.40
2023-05-01T00:42:59.132Z,27.36
2023-05-01T00:43:59.119Z,27.36
2023-05-01T00:44:59.139Z,27.34
2023-05-01T00:45:59.163Z,27.34
2023-05-01T00:46:59.117Z,27.33
2023-05-01T00:47:59.223Z,27.33
2023-05-01T00:48:59.149Z,27.36
2023-05-01T00:49:59.162Z,27.31
2023-05-01T00:50:59.195Z,27.34
2023-05-01T00:51:59.206Z,27.34
2023-05-01T00:52:59.253Z,27.30
2023-05-01T00:53:59.276Z,27.30
2023-05-01T00:54:59.287Z,27.30
2023-05-01T00:55:59.300Z,27.30
2023-05-01T00:56:59.338Z,27.28
2023-05-01T00:57:59.360Z,27.30
2023-05-01T00:58:59.386Z,27.28
2023-05-01T00:59:59.402Z,27.32
2023-05-01T01:00:59.428Z,27.28
2023-05-01T01:01:59.428Z,27.33
2023-05-01T01:02:59.443Z,27.30
2023-05-01T01:03:59.428Z,27.24
2023-05-01T01:04:59.501Z,27.30
2023-05-01T01:05:59.497Z,27.30
2023-05-01T01:06:59.471Z,27.28
2023-05-01T01:07:59.476Z,27.27
2023-05-01T01:08:59.482Z,27.25
2023-05-01T01:09:59.511Z,27.27
2023-05-01T01:10:59.543Z,27.24
2023-05-01T01:11:59.531Z,27.23
2023-05-01T01:12:59.537Z,27.26
2023-05-01T01:13:59.553Z,27.21
2023-05-01T01:14:59.648Z,27.31
2023-05-01T01:15:59.570Z,27.21
2023-05-01T01:16:59.616Z,27.27
2023-05-01T01:17:59.621Z,27.20
2023-05-01T01:18:59.589Z,27.23
2023-05-01T01:19:59.562Z,27.23
2023-05-01T01:20:59.583Z,27.18
2023-05-01T01:21:59.597Z,27.26
2023-05-01T01:22:59.620Z,27.25
2023-05-01T01:23:59.665Z,27.26
2023-05-01T01:24:59.750Z,27.23
2023-05-01T01:25:59.741Z,27.24
2023-05-01T01:26:59.762Z,27.22
2023-05-01T01:27:59.806Z,27.26
2023-05-01T01:28:59.837Z,27.21
2023-05-01T01:29:59.884Z,27.23
2023-05-01T01:30:59.932Z,27.22
2023-05-01T01:31:59.987Z,27.21
2023-05-01T01:33:00.041Z,27.20
2023-05-01T01:34:00.064Z,27.20
2023-05-01T01:35:00.070Z,27.20
2023-05-01T01:36:00.098Z,27.20
2023-05-01T01:37:00.074Z,27.23
2023-05-01T01:38:00.106Z,27.21
2023-05-01T01:39:00.125Z,27.17
2023-05-01T01:40:00.133Z,27.23
2023-05-01T01:41:00.169Z,27.21
2023-05-01T01:42:00.172Z,27.18
2023-05-01T01:43:00.194Z,27.15
2023-05-01T01:44:00.200Z,27.17
2023-05-01T01:45:00.210Z,27.18
2023-05-01T01:46:00.258Z,27.14
2023-05-01T01:47:00.233Z,27.26
2023-05-01T01:48:00.338Z,27.15
2023-05-01T01:49:00.253Z,27.18
2023-05-01T01:50:00.226Z,27.15
2023-05-01T01:51:00.273Z,27.20
2023-05-01T01:52:00.299Z,27.14
2023-05-01T01:53:00.328Z,27.12
2023-05-01T01:54:00.362Z,27.17
2023-05-01T01:55:00.397Z,27.13
2023-05-01T01:56:03.062Z,27.13
2023-05-01T01:57:00.436Z,27.18
2023-05-01T01:58:00.412Z,27.21
2023-05-01T01:59:00.421Z,27.18
2023-05-01T02:00:00.416Z,27.15
2023-05-01T02:01:00.403Z,27.14
2023-05-01T02:02:00.513Z,27.11
2023-05-01T02:03:00.481Z,27.14
2023-05-01T02:04:00.445Z,27.12
2023-05-01T02:05:00.380Z,27.14
2023-05-01T02:06:00.386Z,27.17
2023-05-01T02:07:00.364Z,27.17
2023-05-01T02:08:00.355Z,27.11
2023-05-01T02:09:00.336Z,27.15
2023-05-01T02:10:00.345Z,27.13
2023-05-01T02:11:02.118Z,27.15
2023-05-01T02:12:00.319Z,27.11
2023-05-01T02:13:00.329Z,27.11
2023-05-01T02:14:00.315Z,27.08
2023-05-01T02:15:00.319Z,27.11
2023-05-01T02:16:00.419Z,27.08
2023-05-01T02:17:00.280Z,27.13
2023-05-01T02:18:00.336Z,27.11
2023-05-01T02:19:00.269Z,27.15
2023-05-01T02:20:00.278Z,27.11
2023-05-01T02:21:00.267Z,27.17
2023-05-01T02:22:00.246Z,27.14
2023-05-01T02:23:00.239Z,27.12
2023-05-01T02:24:00.241Z,27.11
2023-05-01T02:25:00.243Z,27.11
2023-05-01T02:26:00.229Z,27.13
2023-05-01T02:27:00.217Z,27.13
2023-05-01T02:28:00.250Z,27.13
2023-05-01T02:29:00.216Z,27.11
2023-05-01T02:30:00.232Z,27.11
2023-05-01T02:31:00.216Z,27.10
2023-05-01T02:32:00.304Z,27.11
2023-05-01T02:33:00.260Z,27.14
2023-05-01T02:34:00.179Z,27.14
2023-05-01T02:35:00.201Z,27.14
2023-05-01T02:36:00.272Z,27.13
2023-05-01T02:37:00.267Z,27.10
2023-05-01T02:38:00.315Z,27.13
2023-05-01T02:39:00.333Z,27.14
2023-05-01T02:40:00.381Z,27.07
2023-05-01T02:41:00.403Z,27.14
2023-05-01T02:42:00.449Z,27.14
2023-05-01T02:43:00.480Z,27.13
2023-05-01T02:44:00.486Z,27.10
2023-05-01T02:45:00.472Z,27.13
2023-05-01T02:46:00.522Z,27.10
2023-05-01T02:47:00.579Z,27.11
2023-05-01T02:48:00.596Z,27.11
2023-05-01T02:49:00.594Z,27.10
2023-05-01T02:50:00.645Z,27.11
2023-05-01T02:51:00.677Z,27.11
2023-05-01T02:52:00.717Z,27.14
2023-05-01T02:53:00.758Z,27.09
2023-05-01T02:54:00.785Z,27.11
2023-05-01T02:55:00.813Z,27.14
2023-05-01T02:56:00.855Z,27.15
2023-05-01T02:57:00.889Z,27.11
2023-05-01T02:58:00.894Z,27.13
2023-05-01T02:59:00.893Z,27.13
2023-05-01T03:00:00.885Z,27.12
2023-05-01T03:01:00.936Z,27.14
2023-05-01T03:02:00.917Z,27.05
2023-05-01T03:03:00.962Z,27.08
2023-05-01T03:04:00.897Z,27.15
2023-05-01T03:05:00.886Z,27.11
2023-05-01T03:06:00.948Z,27.13
2023-05-01T03:07:01.000Z,27.14
2023-05-01T03:08:00.979Z,27.07
2023-05-01T03:09:01.029Z,27.13
2023-05-01T03:10:01.076Z,27.11
2023-05-01T03:11:01.110Z,27.13
2023-05-01T03:12:01.186Z,27.08
2023-05-01T03:13:01.197Z,27.14
2023-05-01T03:14:01.236Z,27.07
2023-05-01T03:15:01.284Z,27.12
2023-05-01T03:16:01.328Z,27.13
2023-05-01T03:17:01.340Z,27.12
2023-05-01T03:18:01.371Z,27.13
2023-05-01T03:19:01.333Z,27.11
2023-05-01T03:20:01.379Z,27.13
2023-05-01T03:21:01.416Z,27.11
2023-05-01T03:22:01.463Z,27.14
2023-05-01T03:23:01.457Z,27.10
2023-05-01T03:24:01.464Z,27.11
2023-05-01T03:25:01.528Z,27.15
2023-05-01T03:26:01.451Z,27.12
2023-05-01T03:27:01.468Z,27.14
2023-05-01T03:28:01.471Z,27.14
2023-05-01T03:29:01.462Z,27.11
2023-05-01T03:30:01.462Z,27.11
2023-05-01T03:31:01.465Z,27.12
2023-05-01T03:32:01.502Z,27.10
2023-05-01T03:33:01.474Z,27.11
2023-05-01T03:34:01.444Z,27.14
2023-05-01T03:35:01.522Z,27.14
2023-05-01T03:36:01.514Z,27.11
2023-05-01T03:37:01.525Z,27.08
2023-05-01T03:38:01.498Z,27.12
2023-05-01T03:39:01.514Z,27.07
2023-05-01T03:40:01.505Z,27.08
2023-05-01T03:41:01.493Z,27.10
2023-05-01T03:42:01.489Z,27.07
2023-05-01T03:43:01.530Z,27.11
2023-05-01T03:44:01.588Z,27.12
2023-05-01T03:45:01.631Z,27.12
2023-05-01T03:46:01.691Z,27.11
2023-05-01T03:47:01.693Z,27.10
2023-05-01T03:48:01.865Z,27.10
2023-05-01T03:49:01.770Z,27.10
2023-05-01T03:50:01.798Z,27.10
2023-05-01T03:51:01.862Z,27.17
2023-05-01T03:52:01.881Z,27.10
2023-05-01T03:53:01.959Z,27.17
2023-05-01T03:54:01.984Z,27.15
2023-05-01T03:55:02.017Z,27.12
2023-05-01T03:56:02.032Z,27.15
2023-05-01T03:57:02.042Z,27.11
2023-05-01T03:58:02.046Z,27.17
2023-05-01T03:59:02.089Z,27.14
2023-05-01T04:00:02.073Z,27.10
2023-05-01T04:01:02.074Z,27.13
2023-05-01T04:02:02.123Z,27.08
2023-05-01T04:03:02.535Z,27.14
2023-05-01T04:04:02.332Z,27.10
2023-05-01T04:05:02.057Z,27.13
2023-05-01T04:06:02.085Z,27.11
2023-05-01T04:07:02.045Z,27.13
2023-05-01T04:08:02.057Z,27.11
2023-05-01T04:09:02.041Z,27.11
2023-05-01T04:10:02.072Z,27.14
2023-05-01T04:11:02.049Z,27.14
2023-05-01T04:12:02.045Z,27.12
2023-05-01T04:13:02.034Z,27.18
2023-05-01T04:14:02.041Z,27.11
2023-05-01T04:15:02.094Z,27.08
2023-05-01T04:16:02.226Z,27.11
2023-05-01T04:17:02.191Z,27.14
2023-05-01T04:18:02.328Z,27.13
2023-05-01T04:19:02.300Z,27.14
2023-05-01T04:20:02.333Z,27.13
2023-05-01T04:21:02.382Z,27.14
2023-05-01T04:22:02.409Z,27.11
2023-05-01T04:23:02.438Z,27.14
2023-05-01T04:24:02.500Z,27.14
2023-05-01T04:25:02.522Z,27.12
2023-05-01T04:26:02.571Z,27.17
2023-05-01T04:27:02.636Z,27.13
2023-05-01T04:28:02.626Z,27.05
2023-05-01T04:29:02.661Z,27.15
2023-05-01T04:30:02.629Z,27.10
2023-05-01T04:31:02.684Z,27.11
2023-05-01T04:32:02.664Z,27.13
2023-05-01T04:33:02.676Z,27.14
2023-05-01T04:34:02.630Z,27.13
2023-05-01T04:35:04.112Z,27.13
2023-05-01T04:36:02.663Z,27.13
2023-05-01T04:37:02.691Z,27.10
2023-05-01T04:38:02.694Z,27.13
2023-05-01T04:39:02.718Z,27.14
2023-05-01T04:40:02.683Z,27.06
2023-05-01T04:41:02.668Z,27.14
2023-05-01T04:42:02.704Z,27.13
2023-05-01T04:43:02.725Z,27.13
2023-05-01T04:44:02.742Z,27.12
2023-05-01T04:45:02.803Z,27.15
2023-05-01T04:46:02.731Z,27.11
2023-05-01T04:47:02.829Z,27.09
2023-05-01T04:48:02.789Z,27.10
2023-05-01T04:49:02.707Z,27.10
2023-05-01T04:50:02.777Z,27.10
2023-05-01T04:51:02.779Z,27.13
2023-05-01T04:52:02.812Z,27.07
2023-05-01T04:53:02.820Z,27.12
2023-05-01T04:54:02.839Z,27.13
2023-05-01T04:55:02.844Z,27.10
2023-05-01T04:56:02.870Z,27.07
2023-05-01T04:57:02.884Z,27.07
2023-05-01T04:58:02.888Z,27.09
2023-05-01T04:59:02.894Z,27.09
2023-05-01T05:00:02.921Z,27.09
2023-05-01T05:01:03.002Z,27.10
2023-05-01T05:02:03.006Z,27.08
2023-05-01T05:03:03.034Z,27.08
2023-05-01T05:04:03.102Z,27.08
2023-05-01T05:05:03.035Z,27.03
2023-05-01T05:06:03.063Z,27.10
2023-05-01T05:07:03.015Z,27.08
2023-05-01T05:08:03.036Z,27.08
2023-05-01T05:09:03.074Z,27.06
2023-05-01T05:10:03.097Z,27.06
2023-05-01T05:11:03.120Z,27.08
2023-05-01T05:12:03.134Z,27.06
2023-05-01T05:13:03.191Z,27.06
2023-05-01T05:14:03.173Z,27.11
2023-05-01T05:15:03.159Z,27.05
2023-05-01T05:16:03.187Z,27.04
2023-05-01T05:17:03.184Z,27.04
2023-05-01T05:18:03.231Z,27.09
2023-05-01T05:19:03.213Z,27.05
2023-05-01T05:20:03.224Z,27.03
2023-05-01T05:21:03.246Z,27.05
2023-05-01T05:22:03.261Z,27.05
2023-05-01T05:23:03.283Z,27.05
2023-05-01T05:24:03.292Z,27.04
2023-05-01T05:25:03.318Z,27.01
2023-05-01T05:26:03.313Z,27.03
2023-05-01T05:27:03.320Z,27.10
2023-05-01T05:28:03.350Z,27.04
2023-05-01T05:29:03.353Z,27.03
2023-05-01T05:30:03.411Z,27.05
2023-05-01T05:31:03.424Z,27.07
2023-05-01T05:32:03.550Z,27.07
2023-05-01T05:33:03.571Z,27.04
2023-05-01T05:34:03.520Z,27.01
2023-05-01T05:35:03.566Z,27.04
2023-05-01T05:36:03.577Z,27.10
2023-05-01T05:37:03.600Z,27.04
2023-05-01T05:38:03.603Z,27.03
2023-05-01T05:39:03.637Z,27.01
2023-05-01T05:40:03.681Z,27.06
2023-05-01T05:41:03.702Z,27.06
2023-05-01T05:42:03.722Z,27.08
2023-05-01T05:43:03.768Z,27.04
2023-05-01T05:44:03.771Z,27.07
2023-05-01T05:45:03.795Z,27.09
2023-05-01T05:46:03.891Z,27.01
2023-05-01T05:47:03.819Z,27.01
2023-05-01T05:48:03.871Z,27.03
2023-05-01T05:49:03.834Z,27.04
2023-05-01T05:50:03.868Z,27.00
2023-05-01T05:51:03.877Z,27.06
2023-05-01T05:52:03.901Z,27.06
2023-05-01T05:53:03.905Z,27.01
2023-05-01T05:54:03.929Z,26.99
2023-05-01T05:55:03.951Z,26.99
2023-05-01T05:56:03.955Z,27.01
2023-05-01T05:57:03.972Z,27.01
2023-05-01T05:58:03.990Z,26.98
2023-05-01T05:59:04.005Z,27.01
2023-05-01T06:00:04.006Z,26.94
2023-05-01T06:01:04.076Z,26.95
2023-05-01T06:02:04.059Z,27.02
2023-05-01T06:03:04.198Z,26.98
2023-05-01T06:04:04.070Z,26.99
2023-05-01T06:05:04.080Z,27.02
2023-05-01T06:06:04.209Z,26.95
2023-05-01T06:07:04.102Z,26.95
2023-05-01T06:08:04.082Z,26.94
2023-05-01T06:09:04.103Z,26.95
2023-05-01T06:10:04.109Z,26.98
2023-05-01T06:11:04.120Z,26.91
2023-05-01T06:12:04.103Z,26.94
2023-05-01T06:13:13.347Z,27.00
2023-05-01T06:14:05.115Z,26.95
2023-05-01T06:15:04.123Z,26.96
2023-05-01T06:16:04.163Z,26.92
2023-05-01T06:17:04.107Z,26.86
2023-05-01T06:18:04.121Z,26.88
2023-05-01T06:19:04.081Z,26.86
2023-05-01T06:20:04.077Z,26.86
2023-05-01T06:21:04.129Z,26.86
2023-05-01T06:22:04.077Z,26.85
2023-05-01T06:23:04.095Z,26.87
2023-05-01T06:24:04.089Z,26.85
2023-05-01T06:25:04.068Z,26.80
2023-05-01T06:26:04.078Z,26.77
2023-05-01T06:27:04.050Z,26.79
2023-05-01T06:28:04.073Z,26.77
2023-05-01T06:29:04.035Z,26.76
2023-05-01T06:30:04.092Z,26.72
2023-05-01T06:31:04.194Z,26.73
2023-05-01T06:32:04.232Z,26.72
2023-05-01T06:33:04.346Z,26.70
2023-05-01T06:34:04.326Z,26.71
2023-05-01T06:35:04.411Z,26.69
2023-05-01T06:36:04.436Z,26.69
2023-05-01T06:37:04.491Z,26.65
2023-05-01T06:38:04.545Z,26.68
2023-05-01T06:39:04.554Z,26.69
2023-05-01T06:40:04.597Z,26.61
2023-05-01T06:41:04.630Z,26.67
2023-05-01T06:42:04.715Z,26.64
2023-05-01T06:43:04.715Z,26.61
2023-05-01T06:44:04.721Z,26.64
2023-05-01T06:45:04.713Z,26.65
2023-05-01T06:46:04.708Z,26.67
2023-05-01T06:47:04.802Z,26.62
2023-05-01T06:48:04.767Z,26.68
2023-05-01T06:49:04.774Z,26.68
2023-05-01T06:50:05.653Z,26.64
2023-05-01T06:51:04.818Z,26.64
2023-05-01T06:52:04.890Z,26.64
2023-05-01T06:53:04.933Z,26.61
2023-05-01T06:54:04.937Z,26.66
2023-05-01T06:55:04.959Z,26.67
2023-05-01T06:56:04.988Z,26.64
2023-05-01T06:57:05.016Z,26.68
2023-05-01T06:58:12.668Z,26.60
2023-05-01T06:59:06.017Z,26.67
2023-05-01T07:00:05.014Z,26.66
2023-05-01T07:01:05.050Z,26.64
2023-05-01T07:02:05.087Z,26.64
2023-05-01T07:03:05.008Z,26.66
2023-05-01T07:04:04.971Z,26.64
2023-05-01T07:05:04.972Z,26.66
2023-05-01T07:06:04.998Z,26.66
2023-05-01T07:07:04.972Z,26.69
2023-05-01T07:08:04.958Z,26.69
2023-05-01T07:09:05.005Z,26.67
2023-05-01T07:10:04.968Z,26.67
2023-05-01T07:11:05.028Z,26.66
2023-05-01T07:12:05.097Z,26.67
2023-05-01T07:13:05.139Z,26.67
2023-05-01T07:14:05.169Z,26.70
2023-05-01T07:15:05.223Z,26.69
2023-05-01T07:16:05.293Z,26.72
2023-05-01T07:17:05.331Z,26.70
2023-05-01T07:18:05.360Z,26.73
2023-05-01T07:19:05.406Z,26.74
2023-05-01T07:20:05.456Z,26.70
2023-05-01T07:21:05.495Z,26.76
2023-05-01T07:22:05.557Z,26.76
2023-05-01T07:23:07.467Z,26.73
2023-05-01T07:24:05.589Z,26.77
2023-05-01T07:25:05.614Z,26.79
2023-05-01T07:26:05.639Z,26.74
2023-05-01T07:27:05.673Z,26.76
2023-05-01T07:28:05.649Z,26.74
2023-05-01T07:29:05.686Z,26.74
2023-05-01T07:30:05.679Z,26.77
2023-05-01T07:31:05.717Z,26.80
2023-05-01T07:32:05.795Z,26.80
2023-05-01T07:33:05.850Z,26.80
2023-05-01T07:34:05.810Z,26.82
2023-05-01T07:35:05.859Z,26.80
2023-05-01T07:36:05.904Z,26.82
2023-05-01T07:37:05.989Z,26.85
2023-05-01T07:38:05.986Z,26.85
2023-05-01T07:39:06.031Z,26.83
2023-05-01T07:40:06.087Z,26.83
2023-05-01T07:41:06.126Z,26.84
2023-05-01T07:42:06.204Z,26.83
2023-05-01T07:43:06.210Z,26.79
2023-05-01T07:44:06.265Z,26.80
2023-05-01T07:45:06.289Z,26.82
2023-05-01T07:46:06.423Z,26.85
2023-05-01T07:47:06.429Z,26.78
2023-05-01T07:48:06.488Z,26.79
2023-05-01T07:49:06.514Z,26.79
2023-05-01T07:50:06.523Z,26.81
2023-05-01T07:51:06.585Z,26.76
2023-05-01T07:52:06.643Z,26.78
2023-05-01T07:53:06.639Z,26.78
2023-05-01T07:54:06.673Z,26.83
2023-05-01T07:55:06.744Z,26.82
2023-05-01T07:56:06.784Z,26.81
2023-05-01T07:57:06.826Z,26.82
2023-05-01T07:58:06.855Z,26.82
2023-05-01T07:59:06.877Z,26.87
2023-05-01T08:00:06.945Z,26.84
2023-05-01T08:01:07.027Z,26.81
2023-05-01T08:02:07.128Z,26.83
2023-05-01T08:03:07.346Z,26.80
2023-05-01T08:04:07.179Z,26.82
2023-05-01T08:05:07.195Z,26.77
2023-05-01T08:06:07.274Z,26.79
2023-05-01T08:07:07.232Z,26.73
2023-05-01T08:08:07.231Z,26.77
2023-05-01T08:09:07.279Z,26.77
2023-05-01T08:10:07.337Z,26.67
2023-05-01T08:11:07.382Z,26.70
2023-05-01T08:12:07.464Z,26.67
2023-05-01T08:13:07.498Z,26.67
2023-05-01T08:14:07.541Z,26.70
2023-05-01T08:15:07.562Z,26.66
2023-05-01T08:16:07.631Z,26.59
2023-05-01T08:17:07.632Z,26.66
2023-05-01T08:18:07.703Z,26.67
2023-05-01T08:19:07.688Z,26.66
2023-05-01T08:20:07.693Z,26.68
2023-05-01T08:21:07.686Z,26.66
2023-05-01T08:22:07.690Z,26.70
2023-05-01T08:23:07.714Z,26.69
2023-05-01T08:24:07.725Z,26.67
2023-05-01T08:25:07.723Z,26.65
2023-05-01T08:26:07.723Z,26.72
2023-05-01T08:27:07.720Z,26.71
2023-05-01T08:28:07.728Z,26.65
2023-05-01T08:29:07.709Z,26.71
2023-05-01T08:30:07.729Z,26.75
2023-05-01T08:31:07.758Z,26.71
2023-05-01T08:32:07.718Z,26.73
2023-05-01T08:33:07.800Z,26.74
2023-05-01T08:34:07.713Z,26.71
2023-05-01T08:35:07.739Z,26.71
2023-05-01T08:36:07.738Z,26.74
2023-05-01T08:37:07.745Z,26.77
2023-05-01T08:38:07.730Z,26.73
2023-05-01T08:39:07.733Z,26.73
2023-05-01T08:40:07.738Z,26.73
2023-05-01T08:41:07.784Z,26.75
2023-05-01T08:42:07.834Z,26.69
2023-05-01T08:43:07.850Z,26.72
2023-05-01T08:44:07.871Z,26.69
2023-05-01T08:45:07.873Z,26.71
2023-05-01T08:46:07.988Z,26.65
2023-05-01T08:47:08.165Z,26.75
2023-05-01T08:48:08.104Z,26.69
2023-05-01T08:49:08.048Z,26.70
2023-05-01T08:50:08.097Z,26.68
2023-05-01T08:51:08.156Z,26.70
2023-05-01T08:52:08.235Z,26.70
2023-05-01T08:53:08.344Z,26.72
2023-05-01T08:54:08.360Z,26.73
2023-05-01T08:55:08.426Z,26.73
2023-05-01T08:56:08.468Z,26.74
2023-05-01T08:57:10.384Z,26.67
2023-05-01T08:58:08.599Z,26.75
2023-05-01T08:59:08.630Z,26.66
2023-05-01T09:00:08.703Z,26.62
2023-05-01T09:01:08.785Z,26.67
2023-05-01T09:02:08.903Z,26.65
2023-05-01T09:03:08.968Z,26.62
2023-05-01T09:04:09.022Z,26.61
2023-05-01T09:05:08.997Z,26.64
2023-05-01T09:06:09.085Z,26.63
2023-05-01T09:07:09.032Z,26.66
2023-05-01T09:08:09.049Z,26.63
2023-05-01T09:09:09.062Z,26.60
2023-05-01T09:10:09.071Z,26.60
2023-05-01T09:11:09.071Z,26.57
2023-05-01T09:12:09.098Z,26.57
2023-05-01T09:13:09.138Z,26.57
2023-05-01T09:14:09.185Z,26.55
2023-05-01T09:15:09.237Z,26.46
2023-05-01T09:16:09.340Z,26.44
2023-05-01T09:17:09.350Z,26.51
2023-05-01T09:18:09.454Z,26.51
2023-05-01T09:19:09.441Z,26.51
2023-05-01T09:20:09.507Z,26.48
2023-05-01T09:21:09.545Z,26.50
2023-05-01T09:22:09.584Z,26.48
2023-05-01T09:23:09.658Z,26.50
2023-05-01T09:24:09.669Z,26.48
2023-05-01T09:25:09.730Z,26.50
2023-05-01T09:26:09.757Z,26.57
2023-05-01T09:27:09.828Z,26.50
2023-05-01T09:28:09.847Z,26.55
2023-05-01T09:29:09.909Z,26.57
2023-05-01T09:30:09.948Z,26.60
2023-05-01T09:31:09.962Z,26.64
2023-05-01T09:32:09.970Z,26.58
2023-05-01T09:33:10.057Z,26.60
2023-05-01T09:34:09.978Z,26.61
2023-05-01T09:35:10.048Z,26.60
2023-05-01T09:36:10.082Z,26.66
2023-05-01T09:37:10.126Z,26.59
2023-05-01T09:38:10.162Z,26.56
2023-05-01T09:39:10.225Z,26.61
2023-05-01T09:40:10.246Z,26.61
2023-05-01T09:41:10.306Z,26.66
2023-05-01T09:42:10.340Z,26.66
2023-05-01T09:43:11.740Z,26.66
2023-05-01T09:44:10.426Z,26.70
2023-05-01T09:45:10.449Z,26.72
2023-05-01T09:46:10.560Z,26.72
2023-05-01T09:47:10.550Z,26.82
2023-05-01T09:48:10.643Z,26.74
2023-05-01T09:49:10.630Z,26.79
2023-05-01T09:50:10.681Z,26.74
2023-05-01T09:51:10.695Z,26.76
2023-05-01T09:52:10.727Z,26.73
2023-05-01T09:53:10.753Z,26.77
2023-05-01T09:54:10.800Z,26.72
2023-05-01T09:55:10.825Z,26.76
2023-05-01T09:56:10.857Z,26.79
2023-05-01T09:57:10.887Z,26.75
2023-05-01T09:58:10.924Z,26.73
2023-05-01T09:59:10.967Z,26.71
2023-05-01T10:00:11.169Z,26.65
2023-05-01T10:01:11.042Z,26.65
2023-05-01T10:02:11.066Z,26.70
2023-05-01T10:03:11.158Z,26.66
2023-05-01T10:04:11.062Z,26.68
2023-05-01T10:05:11.363Z,26.66
2023-05-01T10:06:11.184Z,26.64
2023-05-01T10:07:11.133Z,26.70
2023-05-01T10:08:11.159Z,26.65
2023-05-01T10:09:11.177Z,26.74
2023-05-01T10:10:11.196Z,26.66
2023-05-01T10:11:11.226Z,26.65
2023-05-01T10:12:11.249Z,26.68
2023-05-01T10:13:11.269Z,26.66
2023-05-01T10:14:11.326Z,26.63
2023-05-01T10:15:24.046Z,26.70
2023-05-01T10:16:12.299Z,26.68
2023-05-01T10:17:11.388Z,26.72
2023-05-01T10:18:11.354Z,26.69
2023-05-01T10:19:11.291Z,26.68
2023-05-01T10:20:11.302Z,26.71
2023-05-01T10:21:11.455Z,26.69
2023-05-01T10:22:11.294Z,26.73
2023-05-01T10:23:11.249Z,26.69
2023-05-01T10:24:11.343Z,26.69
2023-05-01T10:25:11.248Z,26.72
2023-05-01T10:26:11.243Z,26.76
2023-05-01T10:27:11.219Z,26.72
2023-05-01T10:28:11.220Z,26.72
2023-05-01T10:29:11.230Z,26.71
2023-05-01T10:30:11.356Z,26.71
2023-05-01T10:31:11.319Z,26.78
2023-05-01T10:32:11.271Z,26.66
2023-05-01T10:33:11.380Z,26.61
2023-05-01T10:34:11.325Z,26.65
2023-05-01T10:35:11.322Z,26.64
2023-05-01T10:36:11.349Z,26.61
2023-05-01T10:37:11.334Z,26.60
2023-05-01T10:38:11.358Z,26.57
2023-05-01T10:39:11.405Z,26.54
2023-05-01T10:40:11.449Z,26.49
2023-05-01T10:41:11.502Z,26.49
2023-05-01T10:42:11.773Z,26.43
2023-05-01T10:43:11.467Z,26.44
2023-05-01T10:44:11.460Z,26.51
2023-05-01T10:45:11.449Z,26.42
2023-05-01T10:46:11.514Z,26.41
2023-05-01T10:47:11.466Z,26.44
2023-05-01T10:48:11.469Z,26.39
2023-05-01T10:49:11.459Z,26.45
2023-05-01T10:50:11.475Z,26.44
2023-05-01T10:51:11.553Z,26.46
2023-05-01T10:52:11.491Z,26.44
2023-05-01T10:53:11.597Z,26.44
2023-05-01T10:54:11.507Z,26.45
2023-05-01T10:55:11.519Z,26.47
2023-05-01T10:56:11.575Z,26.47
2023-05-01T10:57:11.562Z,26.53
2023-05-01T10:58:11.564Z,26.56
2023-05-01T10:59:11.551Z,26.60
2023-05-01T11:00:11.564Z,26.51
2023-05-01T11:01:11.556Z,26.61
2023-05-01T11:02:11.597Z,26.61
2023-05-01T11:03:11.581Z,26.63
2023-05-01T11:04:11.551Z,26.63
2023-05-01T11:05:11.623Z,26.63
2023-05-01T11:06:11.726Z,26.66
2023-05-01T11:07:11.721Z,26.68
2023-05-01T11:08:11.738Z,26.66
2023-05-01T11:09:11.791Z,26.70
2023-05-01T11:10:11.816Z,26.71
2023-05-01T11:11:11.833Z,26.70
2023-05-01T11:12:11.852Z,26.72
2023-05-01T11:13:11.873Z,26.69
2023-05-01T11:14:11.885Z,26.67
2023-05-01T11:15:11.881Z,26.69
2023-05-01T11:16:11.927Z,26.69
2023-05-01T11:17:11.915Z,26.72
2023-05-01T11:18:11.981Z,26.74
2023-05-01T11:19:11.927Z,26.68
2023-05-01T11:20:11.912Z,26.66
2023-05-01T11:21:11.924Z,26.69
2023-05-01T11:22:12.002Z,26.72
2023-05-01T11:23:12.026Z,26.73
2023-05-01T11:24:12.071Z,26.70
2023-05-01T11:25:12.121Z,26.69
2023-05-01T11:26:12.160Z,26.66
2023-05-01T11:27:12.138Z,26.68
2023-05-01T11:28:12.153Z,26.65
2023-05-01T11:29:12.161Z,26.65
2023-05-01T11:30:12.237Z,26.66
2023-05-01T11:31:12.258Z,26.65
2023-05-01T11:32:12.297Z,26.65
2023-05-01T11:33:12.296Z,26.60
2023-05-01T11:34:12.274Z,26.66
2023-05-01T11:35:12.274Z,26.68
2023-05-01T11:36:12.273Z,26.66
2023-05-01T11:37:12.295Z,26.66
2023-05-01T11:38:12.335Z,26.68
2023-05-01T11:39:12.357Z,26.68
2023-05-01T11:40:12.396Z,26.63
2023-05-01T11:41:12.475Z,26.65
2023-05-01T11:42:12.507Z,26.70
2023-05-01T11:43:12.533Z,26.70
2023-05-01T11:44:12.580Z,26.73
2023-05-01T11:45:12.648Z,26.71
2023-05-01T11:46:12.804Z,26.74
2023-05-01T11:47:12.767Z,26.70
2023-05-01T11:48:12.846Z,26.74
2023-05-01T11:49:12.772Z,26.74
2023-05-01T11:50:12.798Z,26.71
2023-05-01T11:51:12.797Z,26.74
2023-05-01T11:52:12.846Z,26.75
2023-05-01T11:53:12.897Z,26.73
2023-05-01T11:54:14.461Z,26.78
2023-05-01T11:55:12.940Z,26.80
2023-05-01T11:56:23.113Z,26.77
2023-05-01T11:57:13.925Z,26.84
2023-05-01T11:58:12.928Z,26.87
2023-05-01T11:59:12.903Z,26.82
2023-05-01T12:00:12.893Z,26.90
2023-05-01T12:01:12.895Z,26.91
2023-05-01T12:02:12.975Z,26.95
2023-05-01T12:03:13.371Z,26.96
2023-05-01T12:04:12.998Z,26.93
2023-05-01T12:05:12.875Z,26.95
2023-05-01T12:06:12.884Z,27.03
2023-05-01T12:07:12.845Z,27.06
2023-05-01T12:08:12.850Z,27.04
2023-05-01T12:09:12.845Z,27.07
2023-05-01T12:10:12.891Z,27.06
2023-05-01T12:11:12.913Z,27.06
2023-05-01T12:12:12.955Z,27.06
2023-05-01T12:13:12.934Z,27.13
2023-05-01T12:14:12.923Z,27.13
2023-05-01T12:15:12.945Z,27.13
2023-05-01T12:16:12.985Z,27.11
2023-05-01T12:17:13.041Z,27.17
2023-05-01T12:18:13.127Z,27.13
2023-05-01T12:19:13.077Z,27.17
2023-05-01T12:20:13.120Z,27.13
2023-05-01T12:21:13.152Z,27.09
2023-05-01T12:22:13.200Z,27.07
2023-05-01T12:23:13.254Z,27.09
2023-05-01T12:24:13.261Z,27.07
2023-05-01T12:25:13.297Z,26.99
2023-05-01T12:26:13.325Z,27.05
2023-05-01T12:27:13.333Z,27.05
2023-05-01T12:28:13.372Z,26.96
2023-05-01T12:29:13.457Z,26.94
2023-05-01T12:30:13.462Z,26.92
2023-05-01T12:31:13.602Z,26.83
2023-05-01T12:32:13.582Z,26.86
2023-05-01T12:33:13.707Z,26.84
2023-05-01T12:34:13.714Z,26.86
2023-05-01T12:35:13.754Z,26.80
2023-05-01T12:36:13.753Z,26.80
2023-05-01T12:37:13.784Z,26.77
2023-05-01T12:38:13.773Z,26.75
2023-05-01T12:39:13.809Z,26.72
2023-05-01T12:40:13.821Z,26.75
2023-05-01T12:41:13.846Z,26.70
2023-05-01T12:42:13.837Z,26.71
2023-05-01T12:43:13.859Z,26.58
2023-05-01T12:44:13.865Z,26.57
2023-05-01T12:45:13.860Z,26.59
2023-05-01T12:46:13.917Z,26.56
2023-05-01T12:47:13.873Z,26.56
2023-05-01T12:48:13.926Z,26.49
2023-05-01T12:49:13.896Z,26.48
2023-05-01T12:50:13.928Z,26.50
2023-05-01T12:51:14.007Z,26.44
2023-05-01T12:52:14.048Z,26.44
2023-05-01T12:53:14.082Z,26.48